Time;durP1;ratioP1;P1;durP2;ratioP2;P2;SDS_P1;SDS_P2;PMS_P1;PMS_P2;Temp;Humidity;BMP_temperature;BMP_pressure;BME280_temperature;BME280_humidity;BME280_pressure;Samples;Min_cycle;Max_cycle;Signal;HPM_P1;HPM_P2
2021/05/05 00:00:14;;;;;;;1.40;1.38;;;7.90;99.90;;;;;;5131449;27;20267;-69
2021/05/05 00:02:41;;;;;;;1.80;1.70;;;7.80;99.90;;;;;;5131510;27;20803;-69
2021/05/05 00:05:09;;;;;;;1.83;1.73;;;7.90;99.90;;;;;;5128186;27;20198;-69
2021/05/05 00:07:36;;;;;;;1.38;1.27;;;7.80;99.90;;;;;;5128694;27;20210;-69
2021/05/05 00:10:03;;;;;;;1.20;1.20;;;7.80;99.90;;;;;;5135860;27;20679;-69
2021/05/05 00:12:29;;;;;;;1.27;1.20;;;7.70;99.90;;;;;;5130558;27;20347;-69
2021/05/05 00:14:56;;;;;;;1.73;1.58;;;7.70;99.90;;;;;;5127875;27;20191;-69
2021/05/05 00:17:22;;;;;;;1.40;1.30;;;7.60;99.90;;;;;;5140080;27;20186;-69
2021/05/05 00:19:49;;;;;;;1.65;1.00;;;7.60;99.90;;;;;;5126617;27;20664;-69
2021/05/05 00:22:16;;;;;;;1.58;0.85;;;7.60;99.90;;;;;;5123194;27;20287;-68
2021/05/05 00:24:42;;;;;;;0.80;0.80;;;7.50;99.90;;;;;;5137806;27;20786;-70
2021/05/05 00:27:08;;;;;;;0.93;0.93;;;7.50;99.90;;;;;;5129717;27;20226;-68
2021/05/05 00:29:35;;;;;;;1.00;0.90;;;7.40;99.90;;;;;;5128342;27;20214;-69
2021/05/05 00:32:02;;;;;;;1.30;1.15;;;7.40;99.90;;;;;;5126195;27;20255;-69
2021/05/05 00:34:29;;;;;;;1.00;0.90;;;7.40;99.90;;;;;;5128099;27;20656;-69
2021/05/05 00:36:55;;;;;;;1.30;0.80;;;7.30;99.90;;;;;;5127594;27;20199;-69
2021/05/05 00:39:21;;;;;;;0.73;0.73;;;7.30;99.90;;;;;;5125874;27;20517;-69
2021/05/05 00:41:47;;;;;;;1.98;1.45;;;7.30;99.90;;;;;;5123557;27;20230;-68
2021/05/05 00:44:16;;;;;;;0.77;0.77;;;7.30;99.90;;;;;;5125364;27;20218;-69
2021/05/05 00:46:42;;;;;;;1.50;0.82;;;7.30;99.90;;;;;;5130897;27;20256;-69
2021/05/05 00:49:09;;;;;;;1.55;0.95;;;7.30;99.90;;;;;;5129131;27;20635;-69
2021/05/05 00:51:36;;;;;;;1.65;1.15;;;7.30;99.90;;;;;;5128711;27;20199;-70
2021/05/05 00:54:03;;;;;;;1.27;1.17;;;7.30;99.90;;;;;;5124539;27;20205;-70
2021/05/05 00:56:30;;;;;;;2.08;1.40;;;7.30;99.90;;;;;;5126541;27;20284;-69
2021/05/05 00:58:56;;;;;;;1.40;0.90;;;7.20;99.90;;;;;;5121552;27;20191;-69
2021/05/05 01:01:22;;;;;;;1.02;1.00;;;7.20;99.90;;;;;;5119206;27;20195;-70
2021/05/05 01:03:49;;;;;;;1.40;1.30;;;7.20;99.90;;;;;;5124194;27;20245;-69
2021/05/05 01:06:17;;;;;;;1.55;1.30;;;7.20;99.90;;;;;;5131245;27;20286;-70
2021/05/05 01:08:46;;;;;;;1.48;1.35;;;7.20;99.90;;;;;;5126649;27;20199;-69
2021/05/05 01:11:13;;;;;;;1.50;1.40;;;7.20;99.90;;;;;;5124413;27;20238;-70
2021/05/05 01:13:40;;;;;;;2.42;1.20;;;7.20;99.90;;;;;;5134518;27;20213;-70
2021/05/05 01:16:06;;;;;;;3.92;1.27;;;7.20;99.90;;;;;;5127992;27;20275;-70
2021/05/05 01:18:33;;;;;;;1.73;1.55;;;7.20;99.90;;;;;;5117964;27;20287;-70
2021/05/05 01:21:00;;;;;;;2.25;1.30;;;7.30;99.90;;;;;;5121724;27;20282;-70
2021/05/05 01:23:28;;;;;;;2.63;1.60;;;7.20;99.90;;;;;;5127925;27;20223;-70
2021/05/05 01:25:54;;;;;;;1.40;1.30;;;7.20;99.90;;;;;;5118389;27;20251;-70
2021/05/05 01:28:21;;;;;;;1.50;1.35;;;7.20;99.90;;;;;;5123090;27;20299;-70
2021/05/05 01:30:49;;;;;;;3.35;1.40;;;7.20;99.90;;;;;;5114778;27;20573;-70
2021/05/05 01:33:16;;;;;;;1.15;1.02;;;7.20;99.90;;;;;;5118289;27;20279;-70
2021/05/05 01:35:45;;;;;;;1.90;1.15;;;7.20;99.90;;;;;;5127309;27;20218;-70
2021/05/05 01:38:13;;;;;;;1.58;1.17;;;7.30;99.90;;;;;;5127510;27;20203;-70
2021/05/05 01:40:41;;;;;;;1.20;1.20;;;7.30;99.90;;;;;;5117637;27;20285;-70
2021/05/05 01:43:07;;;;;;;1.63;1.13;;;7.30;99.90;;;;;;5118288;27;20263;-70
2021/05/05 01:45:35;;;;;;;2.13;1.40;;;7.30;99.90;;;;;;5127038;27;20211;-70
2021/05/05 01:48:03;;;;;;;1.60;1.50;;;7.30;99.90;;;;;;5119919;27;20203;-70
2021/05/05 01:50:30;;;;;;;1.35;1.33;;;7.20;99.90;;;;;;5125671;27;20305;-70
2021/05/05 01:52:57;;;;;;;2.10;1.90;;;7.20;99.90;;;;;;5125542;27;20286;-70
2021/05/05 01:55:24;;;;;;;3.72;1.75;;;7.20;99.90;;;;;;5120551;27;20294;-71
2021/05/05 01:57:51;;;;;;;2.13;2.03;;;7.20;99.90;;;;;;5127017;27;20293;-70
2021/05/05 02:00:20;;;;;;;2.28;2.03;;;7.20;99.90;;;;;;5137402;27;20573;-70
2021/05/05 02:02:47;;;;;;;3.65;2.30;;;7.30;99.90;;;;;;5122747;27;20279;-71
2021/05/05 02:05:14;;;;;;;2.13;1.77;;;7.20;99.90;;;;;;5125113;27;20298;-70
2021/05/05 02:07:41;;;;;;;1.63;1.50;;;7.20;99.90;;;;;;5124765;27;20840;-70
2021/05/05 02:10:09;;;;;;;1.20;1.20;;;7.20;99.90;;;;;;5121459;27;20207;-71
2021/05/05 02:12:37;;;;;;;4.05;3.83;;;7.20;99.90;;;;;;5126991;27;20210;-70
2021/05/05 02:15:05;;;;;;;1.60;1.50;;;7.20;99.90;;;;;;5131595;27;20198;-70
2021/05/05 02:20:09;;;;;;;1.83;1.73;;;7.20;99.90;;;;;;5046545;22;20291;-70
2021/05/05 02:22:35;;;;;;;1.38;1.38;;;7.20;99.90;;;;;;5036605;28;20251;-70
2021/05/05 02:25:02;;;;;;;1.30;1.30;;;7.30;99.90;;;;;;5036425;28;20228;-70
2021/05/05 02:27:28;;;;;;;2.38;1.73;;;7.30;99.90;;;;;;5030872;28;20216;-70
2021/05/05 02:29:55;;;;;;;1.65;1.20;;;7.30;99.90;;;;;;5023826;28;20291;-70
2021/05/05 02:32:24;;;;;;;2.25;1.50;;;7.20;99.90;;;;;;5024264;28;20676;-70
2021/05/05 02:34:51;;;;;;;1.55;1.45;;;7.10;99.90;;;;;;5022118;28;20835;-70
2021/05/05 02:37:18;;;;;;;2.33;1.65;;;7.20;99.90;;;;;;5026382;28;20198;-70
2021/05/05 02:39:45;;;;;;;2.47;1.58;;;7.10;99.90;;;;;;5026210;28;20302;-70
2021/05/05 02:42:14;;;;;;;2.97;1.65;;;7.20;99.90;;;;;;5024266;28;20194;-70
2021/05/05 02:44:41;;;;;;;2.25;1.50;;;7.20;99.90;;;;;;5026397;28;20630;-71
2021/05/05 02:47:08;;;;;;;1.63;1.52;;;7.20;99.90;;;;;;5029176;28;20234;-71
2021/05/05 02:49:34;;;;;;;1.48;1.48;;;7.20;99.90;;;;;;5026696;28;20249;-70
2021/05/05 02:52:01;;;;;;;1.70;1.50;;;7.20;99.90;;;;;;5026190;28;20213;-71
2021/05/05 02:54:28;;;;;;;1.65;1.55;;;7.20;99.90;;;;;;5026373;28;20205;-70
2021/05/05 02:56:54;;;;;;;1.92;1.83;;;7.20;99.90;;;;;;5022541;28;20206;-70
2021/05/05 02:59:21;;;;;;;1.95;1.52;;;7.20;99.90;;;;;;5018909;28;20209;-70
2021/05/05 03:01:47;;;;;;;1.65;1.30;;;7.20;99.90;;;;;;5026288;28;20210;-70
2021/05/05 03:04:14;;;;;;;2.25;1.35;;;7.20;99.90;;;;;;5026800;28;20234;-70
2021/05/05 03:06:40;;;;;;;1.45;1.40;;;7.30;99.90;;;;;;5026308;28;20206;-70
2021/05/05 03:09:07;;;;;;;3.50;1.25;;;7.20;99.90;;;;;;5026508;28;20217;-70
2021/05/05 03:11:34;;;;;;;1.10;1.00;;;7.20;99.90;;;;;;5026358;28;20218;-69
2021/05/05 03:14:00;;;;;;;1.15;1.10;;;7.20;99.90;;;;;;5025908;28;20210;-70
2021/05/05 03:16:27;;;;;;;1.27;1.17;;;7.20;99.90;;;;;;5029016;28;20672;-69
2021/05/05 03:18:53;;;;;;;1.42;1.33;;;7.20;99.90;;;;;;5029881;28;20287;-69
2021/05/05 03:21:21;;;;;;;1.83;1.73;;;7.20;99.90;;;;;;5030397;28;20786;-69
2021/05/05 03:23:48;;;;;;;1.70;1.00;;;7.20;99.90;;;;;;5030537;28;20233;-69
2021/05/05 03:26:15;;;;;;;2.75;1.33;;;7.20;99.90;;;;;;5030053;28;20204;-69
2021/05/05 03:28:41;;;;;;;1.08;0.98;;;7.10;99.90;;;;;;5029098;28;20680;-69
2021/05/05 03:31:07;;;;;;;2.10;1.50;;;7.10;99.90;;;;;;5027884;28;20206;-69
2021/05/05 03:33:34;;;;;;;2.28;1.45;;;7.10;99.90;;;;;;5030643;28;20218;-69
2021/05/05 03:36:01;;;;;;;1.98;1.30;;;7.10;99.90;;;;;;5029730;28;20289;-69
2021/05/05 03:38:29;;;;;;;1.80;1.70;;;7.10;99.90;;;;;;5030387;28;20234;-69
2021/05/05 03:40:56;;;;;;;1.25;1.10;;;7.20;99.90;;;;;;5030156;28;20203;-69
2021/05/05 03:43:22;;;;;;;3.13;1.30;;;7.10;99.90;;;;;;5029741;28;20234;-69
2021/05/05 03:45:49;;;;;;;1.65;1.40;;;7.10;99.90;;;;;;5029728;28;20253;-69
2021/05/05 03:48:15;;;;;;;2.22;2.08;;;7.10;99.90;;;;;;5029720;28;20222;-69
2021/05/05 03:50:43;;;;;;;2.72;1.92;;;7.00;99.90;;;;;;5029128;28;20209;-69
2021/05/05 03:53:09;;;;;;;1.38;1.20;;;7.00;99.90;;;;;;5029378;28;20581;-69
2021/05/05 03:55:36;;;;;;;1.67;1.40;;;7.00;99.90;;;;;;5029607;28;20297;-69
2021/05/05 03:58:02;;;;;;;2.03;1.83;;;7.00;99.90;;;;;;5029528;28;20577;-69
2021/05/05 04:00:29;;;;;;;1.85;1.60;;;7.10;99.90;;;;;;5029027;28;20233;-69
2021/05/05 04:02:55;;;;;;;2.70;1.40;;;7.10;99.90;;;;;;5028486;28;20242;-69
2021/05/05 04:05:21;;;;;;;1.70;1.52;;;7.10;99.90;;;;;;5024971;28;20206;-69
2021/05/05 04:07:48;;;;;;;1.63;1.52;;;7.10;99.90;;;;;;5029086;28;20748;-69
2021/05/05 04:10:14;;;;;;;2.08;1.98;;;7.00;99.90;;;;;;5029262;28;20290;-69
2021/05/05 04:12:42;;;;;;;3.33;2.70;;;7.00;99.90;;;;;;5029807;28;20381;-69
2021/05/05 04:15:09;;;;;;;3.60;2.70;;;7.00;99.90;;;;;;5029130;28;20202;-69
2021/05/05 04:17:35;;;;;;;6.13;2.40;;;7.00;99.90;;;;;;5025438;28;20755;-69
2021/05/05 04:20:02;;;;;;;2.30;2.17;;;7.00;99.90;;;;;;5028915;28;20239;-69
2021/05/05 04:22:28;;;;;;;2.33;2.13;;;7.00;99.90;;;;;;5028815;28;20218;-69
2021/05/05 04:24:55;;;;;;;1.95;1.70;;;7.00;99.90;;;;;;5028933;28;20206;-69
2021/05/05 04:27:22;;;;;;;1.48;1.35;;;7.00;99.90;;;;;;5027709;28;20265;-69
2021/05/05 04:29:49;;;;;;;1.85;1.50;;;6.90;99.90;;;;;;5025006;28;20199;-69
2021/05/05 04:32:16;;;;;;;3.40;1.25;;;6.90;99.90;;;;;;5033794;28;20393;-70
2021/05/05 04:34:43;;;;;;;1.40;1.30;;;6.90;99.90;;;;;;5028266;28;20248;-70
2021/05/05 04:37:09;;;;;;;2.15;1.40;;;6.90;99.90;;;;;;5028455;28;20210;-70
2021/05/05 04:39:37;;;;;;;1.30;1.30;;;6.80;99.90;;;;;;5029311;28;20212;-70
2021/05/05 04:42:05;;;;;;;0.90;0.90;;;6.80;99.90;;;;;;5028877;28;20237;-70
2021/05/05 04:44:32;;;;;;;1.42;1.10;;;6.80;99.90;;;;;;5028619;28;20246;-69
2021/05/05 04:47:00;;;;;;;1.10;1.10;;;6.80;99.90;;;;;;5028564;28;20288;-70
2021/05/05 04:49:27;;;;;;;1.48;1.20;;;6.80;99.90;;;;;;5028144;28;20206;-70
2021/05/05 04:51:53;;;;;;;2.00;1.25;;;6.80;99.90;;;;;;5029006;28;20285;-70
2021/05/05 04:54:20;;;;;;;1.30;1.30;;;6.70;99.90;;;;;;5028709;28;20252;-70
2021/05/05 04:56:46;;;;;;;1.38;1.10;;;6.80;99.90;;;;;;5028550;28;20341;-70
2021/05/05 04:59:12;;;;;;;1.27;1.23;;;6.80;99.90;;;;;;5028720;28;20241;-70
2021/05/05 05:01:39;;;;;;;2.45;1.77;;;6.80;99.90;;;;;;5028601;28;20206;-70
2021/05/05 05:04:06;;;;;;;5.90;5.30;;;6.90;99.90;;;;;;5028391;28;20329;-70
2021/05/05 05:06:32;;;;;;;7.50;5.60;;;7.00;99.90;;;;;;5027979;28;20720;-70
2021/05/05 05:08:59;;;;;;;3.13;2.90;;;6.90;99.90;;;;;;5028991;28;20206;-70
2021/05/05 05:11:26;;;;;;;2.63;2.42;;;6.90;99.90;;;;;;5026019;28;20219;-70
2021/05/05 05:13:52;;;;;;;2.47;2.30;;;6.80;99.90;;;;;;5028402;28;20210;-70
2021/05/05 05:16:18;;;;;;;1.63;1.42;;;6.80;99.90;;;;;;5028158;28;20580;-70
2021/05/05 05:18:45;;;;;;;1.83;1.15;;;6.80;99.90;;;;;;5027773;28;20206;-69
2021/05/05 05:21:12;;;;;;;2.47;1.83;;;6.80;99.90;;;;;;5020371;28;20198;-70
2021/05/05 05:23:38;;;;;;;4.60;4.20;;;6.90;99.90;;;;;;5026187;28;20341;-70
2021/05/05 05:26:04;;;;;;;3.97;3.45;;;6.90;99.90;;;;;;5028090;28;20268;-69
2021/05/05 05:28:31;;;;;;;1.40;1.30;;;7.00;99.90;;;;;;5026719;28;20869;-70
2021/05/05 05:30:57;;;;;;;1.90;1.30;;;6.90;99.90;;;;;;5024992;28;20206;-69
2021/05/05 05:33:25;;;;;;;2.03;1.40;;;7.00;99.90;;;;;;5028086;28;20206;-70
2021/05/05 05:35:51;;;;;;;1.60;1.30;;;7.00;99.90;;;;;;5019186;28;20224;-69
2021/05/05 05:38:19;;;;;;;4.55;1.80;;;7.10;99.90;;;;;;5027681;28;20252;-69
2021/05/05 05:40:45;;;;;;;4.35;2.40;;;7.20;99.90;;;;;;5026882;28;20214;-69
2021/05/05 05:43:11;;;;;;;2.70;2.40;;;7.30;99.90;;;;;;5028029;28;20344;-69
2021/05/05 05:45:38;;;;;;;1.80;1.70;;;7.30;99.90;;;;;;5026963;28;20221;-69
2021/05/05 05:48:06;;;;;;;2.63;1.60;;;7.40;99.90;;;;;;5027566;28;20206;-69
2021/05/05 05:50:33;;;;;;;2.08;1.52;;;7.40;99.90;;;;;;5027426;28;20293;-69
2021/05/05 05:52:59;;;;;;;1.52;1.42;;;7.50;99.90;;;;;;5021459;28;20576;-69
2021/05/05 05:55:29;;;;;;;2.00;1.67;;;7.40;99.90;;;;;;5017396;28;20303;-69
2021/05/05 05:57:57;;;;;;;1.13;1.05;;;7.40;99.90;;;;;;5028232;28;20209;-69
2021/05/05 06:00:23;;;;;;;2.40;1.52;;;7.50;99.90;;;;;;5030147;28;20205;-69
2021/05/05 06:02:50;;;;;;;3.05;1.90;;;7.40;99.90;;;;;;5023515;28;20225;-68
2021/05/05 06:05:16;;;;;;;2.13;2.00;;;7.40;99.90;;;;;;5036062;28;20206;-69
2021/05/05 06:07:43;;;;;;;1.73;1.63;;;7.40;99.90;;;;;;5029855;28;20209;-69
2021/05/05 06:10:11;;;;;;;2.10;1.90;;;7.40;99.90;;;;;;5039137;28;20210;-69
2021/05/05 06:12:39;;;;;;;2.40;1.70;;;7.50;99.90;;;;;;5033571;28;20194;-69
2021/05/05 06:15:07;;;;;;;2.38;1.60;;;7.60;99.90;;;;;;5040189;28;20257;-69
2021/05/05 06:17:33;;;;;;;1.10;1.10;;;7.70;99.90;;;;;;5028103;28;21007;-69
2021/05/05 06:19:59;;;;;;;2.85;1.92;;;7.80;99.90;;;;;;5024589;28;20434;-69
2021/05/05 06:22:27;;;;;;;2.00;1.90;;;8.00;99.90;;;;;;5022917;28;20207;-69
2021/05/05 06:24:54;;;;;;;2.45;2.25;;;8.10;99.90;;;;;;5022448;28;20233;-69
2021/05/05 06:27:20;;;;;;;3.90;2.72;;;8.10;99.90;;;;;;5027451;28;20658;-69
2021/05/05 06:29:48;;;;;;;2.67;2.47;;;8.20;99.90;;;;;;5026282;28;20217;-68
2021/05/05 06:32:15;;;;;;;2.83;2.63;;;8.30;99.90;;;;;;5037067;28;20689;-69
2021/05/05 06:34:42;;;;;;;3.10;2.90;;;8.40;99.90;;;;;;5026460;28;20786;-69
2021/05/05 06:37:08;;;;;;;3.13;2.30;;;8.50;99.90;;;;;;5029566;28;20616;-69
2021/05/05 06:39:35;;;;;;;3.10;2.90;;;8.70;99.90;;;;;;5013893;28;20212;-69
2021/05/05 06:42:01;;;;;;;2.65;2.42;;;8.70;99.90;;;;;;5012889;28;20376;-69
2021/05/05 06:44:28;;;;;;;2.45;1.85;;;8.80;99.90;;;;;;5024223;28;20233;-69
2021/05/05 06:46:55;;;;;;;3.28;2.80;;;8.80;99.90;;;;;;5027833;28;20301;-69
2021/05/05 06:49:23;;;;;;;4.30;2.33;;;8.90;99.90;;;;;;5029769;28;20217;-69
2021/05/05 06:51:49;;;;;;;2.95;2.72;;;8.90;99.90;;;;;;5016805;28;20336;-69
2021/05/05 06:54:16;;;;;;;2.40;1.92;;;9.00;99.90;;;;;;5020267;28;20203;-69
2021/05/05 06:56:43;;;;;;;3.92;2.60;;;9.40;99.90;;;;;;5024987;28;20295;-69
2021/05/05 06:59:09;;;;;;;2.70;2.50;;;9.50;99.90;;;;;;5016792;28;20206;-69
2021/05/05 07:01:37;;;;;;;3.20;3.00;;;9.50;99.90;;;;;;5033831;28;20234;-69
2021/05/05 07:04:05;;;;;;;3.33;1.80;;;10.00;99.90;;;;;;5030833;28;20245;-70
2021/05/05 07:06:32;;;;;;;1.80;1.70;;;11.80;99.90;;;;;;5022296;28;20297;-69
2021/05/05 07:08:59;;;;;;;3.45;1.50;;;13.50;98.50;;;;;;5021471;28;20235;-69
2021/05/05 07:11:26;;;;;;;1.50;1.40;;;15.10;95.10;;;;;;5026915;28;20283;-70
2021/05/05 07:13:52;;;;;;;1.83;1.23;;;17.10;91.70;;;;;;5020873;28;20208;-70
2021/05/05 07:16:20;;;;;;;1.80;1.23;;;17.70;89.00;;;;;;5038570;28;20754;-68
2021/05/05 07:18:47;;;;;;;1.40;1.30;;;17.80;84.70;;;;;;5022274;28;20641;-68
2021/05/05 07:21:14;;;;;;;3.10;1.23;;;17.60;83.50;;;;;;5040290;28;20724;-69
2021/05/05 07:23:40;;;;;;;3.03;1.57;;;17.60;83.70;;;;;;5035478;28;20777;-69
2021/05/05 07:26:07;;;;;;;1.87;1.40;;;18.20;80.30;;;;;;5018580;28;20633;-68
2021/05/05 07:28:33;;;;;;;2.87;1.90;;;17.60;78.40;;;;;;5027175;28;20644;-69
2021/05/05 07:31:00;;;;;;;2.00;1.77;;;16.80;79.50;;;;;;5036610;28;20731;-69
2021/05/05 07:33:26;;;;;;;3.03;1.65;;;15.10;83.20;;;;;;5019203;28;20786;-68
2021/05/05 07:35:55;;;;;;;2.78;1.40;;;13.80;89.10;;;;;;5026662;28;20237;-68
2021/05/05 07:38:36;;;;;;;3.03;1.70;;;12.60;91.40;;;;;;5033895;28;20227;-69
2021/05/05 07:46:35;;;;;;;1.70;1.60;;;11.60;95.50;;;;;;5032023;28;20683;-69
2021/05/05 07:49:03;;;;;;;3.53;1.55;;;12.40;94.20;;;;;;5029840;28;20481;-69
2021/05/05 07:51:29;;;;;;;2.65;1.70;;;11.90;93.90;;;;;;5029091;28;20252;-68
2021/05/05 07:53:57;;;;;;;2.45;1.67;;;11.70;93.60;;;;;;5015048;28;20233;-68
2021/05/05 07:56:24;;;;;;;2.38;1.17;;;11.50;94.30;;;;;;5029149;28;20213;-69
2021/05/05 07:58:50;;;;;;;1.65;1.55;;;11.10;93.80;;;;;;5030145;28;20214;-69
2021/05/05 08:01:17;;;;;;;2.70;1.60;;;10.80;93.70;;;;;;5030351;28;20195;-69
2021/05/05 08:03:44;;;;;;;2.03;1.77;;;10.60;92.10;;;;;;5033421;28;21069;-69
2021/05/05 08:06:10;;;;;;;2.35;1.40;;;10.30;91.00;;;;;;5027618;28;20208;-70
2021/05/05 08:08:37;;;;;;;4.90;1.60;;;9.90;90.70;;;;;;5026728;28;20210;-69
2021/05/05 08:11:05;;;;;;;4.38;1.75;;;9.40;91.00;;;;;;5032622;28;20202;-69
2021/05/05 08:13:31;;;;;;;1.90;1.80;;;9.00;90.60;;;;;;5031260;28;20206;-69
2021/05/05 08:15:58;;;;;;;1.45;1.25;;;9.60;91.00;;;;;;5029753;28;20206;-70
2021/05/05 08:18:25;;;;;;;1.70;1.60;;;10.30;89.50;;;;;;5026014;28;20391;-70
2021/05/05 08:20:52;;;;;;;1.75;1.55;;;10.60;87.60;;;;;;5030034;28;20208;-69
2021/05/05 08:23:19;;;;;;;1.60;1.50;;;10.80;88.90;;;;;;5031826;28;20329;-70
2021/05/05 08:25:47;;;;;;;1.73;1.60;;;11.00;86.90;;;;;;5020889;28;20293;-69
2021/05/05 08:28:15;;;;;;;6.40;1.58;;;11.00;84.60;;;;;;5027444;28;20198;-70
2021/05/05 08:30:41;;;;;;;2.38;1.92;;;10.70;85.20;;;;;;5033493;28;20227;-69
2021/05/05 08:33:08;;;;;;;2.92;1.60;;;10.50;85.40;;;;;;5029019;28;20293;-69
2021/05/05 08:35:34;;;;;;;3.60;2.53;;;10.60;86.50;;;;;;5013912;28;20202;-69
2021/05/05 08:38:00;;;;;;;2.72;1.92;;;10.40;84.10;;;;;;5021126;28;20579;-68
2021/05/05 08:40:28;;;;;;;1.80;1.40;;;10.20;86.60;;;;;;5023457;28;20210;-68
2021/05/05 08:42:54;;;;;;;1.70;1.60;;;10.20;86.00;;;;;;5015645;28;20202;-68
2021/05/05 08:45:23;;;;;;;6.07;1.83;;;10.50;85.50;;;;;;5020107;28;20221;-68
2021/05/05 08:47:51;;;;;;;2.70;1.95;;;10.70;86.80;;;;;;5031273;28;20308;-68
2021/05/05 08:50:20;;;;;;;2.20;1.52;;;10.60;87.50;;;;;;5029544;28;20210;-68
2021/05/05 08:52:47;;;;;;;2.85;1.70;;;10.40;88.00;;;;;;5013916;28;20814;-67
2021/05/05 08:55:16;;;;;;;2.83;2.63;;;10.30;89.00;;;;;;5026880;28;20207;-68
2021/05/05 08:57:42;;;;;;;1.88;1.77;;;10.20;86.80;;;;;;5035789;28;20207;-70
2021/05/05 09:00:12;;;;;;;2.30;2.10;;;10.20;88.30;;;;;;5029355;28;20656;-67
2021/05/05 09:02:40;;;;;;;5.05;2.28;;;10.00;84.90;;;;;;5034113;28;20199;-69
2021/05/05 09:05:12;;;;;;;1.92;1.73;;;10.10;87.70;;;;;;5027546;28;20238;-69
2021/05/05 09:07:41;;;;;;;1.50;1.40;;;10.40;88.50;;;;;;5022157;28;20200;-70
2021/05/05 09:10:10;;;;;;;1.83;1.35;;;11.80;88.60;;;;;;5019503;28;20206;-69
2021/05/05 09:12:39;;;;;;;5.35;1.88;;;13.30;82.00;;;;;;5022460;28;20203;-71
2021/05/05 09:15:08;;;;;;;2.40;1.60;;;15.00;78.80;;;;;;5029310;28;20217;-70
2021/05/05 09:17:37;;;;;;;1.23;1.15;;;15.80;74.20;;;;;;5027498;28;20207;-69
2021/05/05 09:20:30;;;;;;;2.40;2.20;;;16.40;70.60;;;;;;5022554;28;20210;-70
2021/05/05 09:22:58;;;;;;;2.00;1.40;;;16.30;70.30;;;;;;5007782;28;20535;-70
2021/05/05 09:25:26;;;;;;;1.73;1.53;;;17.00;66.70;;;;;;5029161;28;20575;-70
2021/05/05 09:28:11;;;;;;;5.13;1.30;;;17.10;65.70;;;;;;5025563;28;20647;-70
2021/05/05 09:30:39;;;;;;;1.30;1.20;;;17.00;66.30;;;;;;5030388;28;20735;-70
2021/05/05 09:33:06;;;;;;;3.53;1.60;;;17.30;66.10;;;;;;5030505;28;20644;-70
2021/05/05 09:35:35;;;;;;;2.80;2.27;;;17.10;63.70;;;;;;5018308;28;21310;-70
2021/05/05 09:38:04;;;;;;;1.52;1.42;;;16.40;65.20;;;;;;5013137;28;20776;-70
2021/05/05 09:40:30;;;;;;;1.80;1.70;;;16.70;66.20;;;;;;5027821;28;20210;-71
2021/05/05 09:42:57;;;;;;;1.98;1.88;;;16.30;66.10;;;;;;5019482;28;20212;-70
2021/05/05 09:45:32;;;;;;;2.35;1.60;;;14.80;65.70;;;;;;5023003;28;20636;-71
2021/05/05 09:47:59;;;;;;;3.15;1.75;;;13.50;70.50;;;;;;5025326;28;20256;-70
2021/05/05 09:50:27;;;;;;;1.60;1.50;;;12.50;71.80;;;;;;5020283;28;20206;-71
2021/05/05 09:53:20;;;;;;;3.67;1.38;;;12.70;74.80;;;;;;5014851;28;20667;-70
2021/05/05 09:56:05;;;;;;;2.58;1.67;;;13.40;70.60;;;;;;5029383;28;20641;-70
2021/05/05 09:58:32;;;;;;;1.67;1.58;;;14.30;71.30;;;;;;5022667;28;20269;-71
2021/05/05 10:01:20;;;;;;;2.38;1.60;;;14.90;67.00;;;;;;5021985;28;20210;-70
2021/05/05 10:03:48;;;;;;;1.60;1.50;;;15.40;67.10;;;;;;5017402;28;20225;-70
2021/05/05 10:06:23;;;;;;;2.25;1.60;;;15.40;65.60;;;;;;5025863;28;20261;-70
2021/05/05 10:08:52;;;;;;;1.50;1.27;;;15.50;66.20;;;;;;5022052;28;20236;-71
2021/05/05 10:11:23;;;;;;;3.25;1.30;;;16.30;64.60;;;;;;5030227;28;20661;-71
2021/05/05 10:13:52;;;;;;;2.55;1.73;;;15.60;61.50;;;;;;5015894;28;20198;-70
2021/05/05 10:16:21;;;;;;;1.95;1.70;;;15.30;64.60;;;;;;5023238;28;20206;-70
2021/05/05 10:18:48;;;;;;;1.60;1.50;;;15.30;64.60;;;;;;5029089;28;20214;-70
2021/05/05 10:21:15;;;;;;;1.85;1.75;;;16.10;67.10;;;;;;5025473;28;20210;-71
2021/05/05 10:23:43;;;;;;;2.50;1.67;;;16.30;63.20;;;;;;5015926;28;20229;-71
2021/05/05 10:26:11;;;;;;;2.65;1.42;;;16.30;61.30;;;;;;5017621;28;20223;-71
2021/05/05 10:28:39;;;;;;;1.73;1.58;;;16.00;60.60;;;;;;5025460;28;20214;-70
2021/05/05 10:31:08;;;;;;;1.48;1.38;;;15.70;61.70;;;;;;5026460;28;20210;-71
2021/05/05 10:33:39;;;;;;;2.10;1.88;;;15.80;60.40;;;;;;5025651;28;20287;-70
2021/05/05 10:36:42;;;;;;;3.72;1.98;;;15.20;59.50;;;;;;5019986;28;20202;-70
2021/05/05 10:39:33;;;;;;;1.88;1.77;;;15.10;62.20;;;;;;5026662;28;21065;-70
2021/05/05 10:42:04;;;;;;;2.13;1.70;;;15.70;63.00;;;;;;5004381;28;20203;-69
2021/05/05 10:44:35;;;;;;;1.77;1.67;;;16.20;64.50;;;;;;5023978;28;20265;-71
2021/05/05 10:47:11;;;;;;;1.30;1.20;;;15.80;59.50;;;;;;5021416;28;20244;-71
2021/05/05 10:50:05;;;;;;;2.15;1.67;;;15.00;60.00;;;;;;5021809;28;20237;-71
2021/05/05 10:53:05;;;;;;;2.47;1.52;;;15.20;63.30;;;;;;5019661;28;20199;-69
2021/05/05 10:55:43;;;;;;;1.83;1.40;;;15.80;64.50;;;;;;5010000;28;20214;-69
2021/05/05 10:58:13;;;;;;;3.45;1.60;;;15.90;61.30;;;;;;5025329;28;20206;-69
2021/05/05 11:00:48;;;;;;;2.13;1.50;;;14.90;60.50;;;;;;5022950;28;20207;-71
2021/05/05 11:03:15;;;;;;;1.40;1.30;;;13.80;60.00;;;;;;5011804;28;20293;-70
2021/05/05 11:05:42;;;;;;;3.15;1.35;;;12.80;62.80;;;;;;5023299;28;20202;-71
2021/05/05 11:08:10;;;;;;;1.00;0.88;;;11.80;73.10;;;;;;5021485;28;20217;-70
2021/05/05 11:10:54;;;;;;;1.67;0.95;;;9.90;84.20;;;;;;5033142;28;20202;-70
2021/05/05 11:13:41;;;;;;;0.90;0.90;;;8.60;92.00;;;;;;5030677;28;20205;-69
2021/05/05 11:16:09;;;;;;;1.50;0.95;;;7.90;97.00;;;;;;5013301;28;20203;-69
2021/05/05 11:18:47;;;;;;;1.23;0.95;;;7.30;99.90;;;;;;5023755;28;20214;-69
2021/05/05 11:21:40;;;;;;;1.85;1.75;;;6.90;99.90;;;;;;5019454;28;20245;-69
2021/05/05 11:24:29;;;;;;;2.30;1.15;;;7.00;99.90;;;;;;5024102;28;20805;-69
2021/05/05 11:26:56;;;;;;;0.70;0.70;;;7.60;99.90;;;;;;5015363;28;20233;-69
2021/05/05 11:29:41;;;;;;;0.73;0.73;;;7.90;99.90;;;;;;5023658;28;20213;-68
2021/05/05 11:32:14;;;;;;;1.52;1.20;;;7.80;99.90;;;;;;5025089;28;20333;-69
2021/05/05 11:34:43;;;;;;;0.90;0.90;;;7.60;99.90;;;;;;5018004;28;20198;-69
2021/05/05 11:37:15;;;;;;;0.93;0.90;;;7.40;99.90;;;;;;5018154;28;20211;-69
2021/05/05 11:39:43;;;;;;;0.68;0.68;;;7.50;99.90;;;;;;5028424;28;20313;-70
2021/05/05 11:42:13;;;;;;;0.70;0.70;;;8.00;99.90;;;;;;5024504;28;20203;-69
2021/05/05 11:44:45;;;;;;;1.50;1.40;;;8.60;99.90;;;;;;5022197;28;20261;-69
2021/05/05 11:47:14;;;;;;;0.98;0.98;;;8.90;99.90;;;;;;5028022;28;20245;-69
2021/05/05 11:49:42;;;;;;;1.10;1.10;;;9.30;99.90;;;;;;5030069;28;20206;-69
2021/05/05 11:52:22;;;;;;;3.47;1.25;;;9.30;99.60;;;;;;5030736;28;20216;-69
2021/05/05 11:54:50;;;;;;;1.50;1.25;;;9.10;99.20;;;;;;5024245;28;20214;-69
2021/05/05 11:57:17;;;;;;;0.93;0.93;;;9.10;99.70;;;;;;5031576;28;20202;-69
2021/05/05 11:59:45;;;;;;;1.13;1.02;;;9.30;99.30;;;;;;5022960;28;20231;-69
2021/05/05 12:02:12;;;;;;;1.75;1.52;;;10.00;98.70;;;;;;5025087;28;20253;-69
2021/05/05 12:04:39;;;;;;;1.30;1.30;;;9.90;96.40;;;;;;5026028;28;20234;-69
2021/05/05 12:07:07;;;;;;;1.10;1.00;;;9.30;96.10;;;;;;5026427;28;20205;-69
2021/05/05 12:09:35;;;;;;;1.73;1.63;;;9.00;96.30;;;;;;5028675;28;21051;-69
2021/05/05 12:12:23;;;;;;;1.63;1.52;;;9.10;96.80;;;;;;5029661;28;20988;-69
2021/05/05 12:14:52;;;;;;;2.13;1.35;;;9.30;97.10;;;;;;5030659;28;20271;-69
2021/05/05 12:17:27;;;;;;;1.40;1.30;;;10.10;95.90;;;;;;5031008;28;20202;-68
2021/05/05 12:19:59;;;;;;;1.25;1.10;;;11.00;94.80;;;;;;5016209;28;20313;-69
2021/05/05 12:22:28;;;;;;;1.52;1.42;;;11.40;93.00;;;;;;5029149;28;20214;-70
2021/05/05 12:25:19;;;;;;;1.10;1.10;;;11.50;92.30;;;;;;5013430;28;20230;-70
2021/05/05 12:28:06;;;;;;;1.30;1.20;;;11.40;91.10;;;;;;4988934;28;20290;-70
2021/05/05 12:30:40;;;;;;;1.50;1.40;;;11.30;91.30;;;;;;5022788;28;20237;-69
2021/05/05 12:33:10;;;;;;;1.88;1.30;;;11.60;92.30;;;;;;5032360;28;20202;-69
2021/05/05 12:35:39;;;;;;;3.10;1.10;;;11.80;90.80;;;;;;5022993;28;20206;-69
2021/05/05 12:38:10;;;;;;;1.00;1.00;;;11.80;90.30;;;;;;5030022;28;20208;-70
2021/05/05 12:40:38;;;;;;;2.08;1.30;;;11.80;89.00;;;;;;5025112;28;20202;-69
2021/05/05 12:43:23;;;;;;;1.50;1.30;;;11.90;88.40;;;;;;5023174;28;20203;-70
2021/05/05 12:45:52;;;;;;;1.10;1.00;;;12.10;89.10;;;;;;5023221;28;20202;-69
2021/05/05 12:48:25;;;;;;;1.20;1.10;;;11.90;87.70;;;;;;5028453;28;20206;-69
2021/05/05 12:50:51;;;;;;;1.33;1.17;;;11.80;87.80;;;;;;5030840;28;20206;-70
2021/05/05 12:53:18;;;;;;;1.65;1.15;;;11.60;87.80;;;;;;5032870;28;20300;-70
2021/05/05 12:55:55;;;;;;;1.48;1.13;;;11.20;85.40;;;;;;5020447;28;20211;-69
2021/05/05 12:58:22;;;;;;;1.15;0.90;;;10.80;83.60;;;;;;5017091;28;20210;-69
2021/05/05 13:00:52;;;;;;;1.35;1.25;;;10.80;86.40;;;;;;5034529;28;20311;-69
2021/05/05 13:03:20;;;;;;;0.90;0.90;;;10.90;86.00;;;;;;5025216;28;20320;-68
2021/05/05 13:06:03;;;;;;;1.10;1.00;;;11.00;86.30;;;;;;5028542;28;20682;-69
2021/05/05 13:08:42;;;;;;;1.13;0.93;;;11.40;87.30;;;;;;5025355;28;20203;-69